Time;durP1;ratioP1;P1;durP2;ratioP2;P2;SDS_P1;SDS_P2;PMS_P1;PMS_P2;Temp;Humidity;BMP_temperature;BMP_pressure;BME280_temperature;BME280_humidity;BME280_pressure;Samples;Min_cycle;Max_cycle;Signal;HPM_P1;HPM_P2
2022/03/08 00:01:44;;;;;;;13.70;5.93;;;-2.40;70.30;;;;;;4156803;28;20030;-73
2022/03/08 00:03:44;;;;;;;13.73;6.70;;;-2.40;70.40;;;;;;4169755;28;20426;-74
2022/03/08 00:05:45;;;;;;;16.25;7.35;;;-2.40;70.40;;;;;;4175678;28;20029;-74
2022/03/08 00:07:46;;;;;;;20.15;6.72;;;-2.40;70.50;;;;;;4153931;28;20037;-73
2022/03/08 00:09:47;;;;;;;15.43;6.55;;;-2.40;70.60;;;;;;4157843;28;20485;-73
2022/03/08 00:11:48;;;;;;;12.07;6.40;;;-2.40;70.70;;;;;;4156437;28;20025;-74
2022/03/08 00:13:50;;;;;;;12.93;6.45;;;-2.50;70.70;;;;;;4174948;28;20140;-73
2022/03/08 00:15:51;;;;;;;16.83;7.10;;;-2.50;70.70;;;;;;4177099;28;20667;-74
2022/03/08 00:17:52;;;;;;;16.23;7.00;;;-2.50;70.70;;;;;;4173900;28;20482;-74
2022/03/08 00:19:53;;;;;;;15.65;7.32;;;-2.50;70.70;;;;;;4173630;28;20533;-74
2022/03/08 00:21:54;;;;;;;11.52;6.25;;;-2.50;70.60;;;;;;4173313;28;20086;-73
2022/03/08 00:23:55;;;;;;;17.50;7.15;;;-2.50;70.60;;;;;;4156666;28;20021;-73
2022/03/08 00:25:56;;;;;;;15.85;6.78;;;-2.60;70.50;;;;;;4173339;28;20083;-73
2022/03/08 00:27:57;;;;;;;13.60;6.65;;;-2.60;70.60;;;;;;4174132;28;20044;-73
2022/03/08 00:29:57;;;;;;;17.85;7.00;;;-2.60;70.60;;;;;;4172079;28;20044;-73
2022/03/08 00:31:58;;;;;;;14.10;7.32;;;-2.60;70.70;;;;;;4174204;28;20116;-73
2022/03/08 00:33:59;;;;;;;13.73;6.93;;;-2.60;70.70;;;;;;4174580;28;20044;-73
2022/03/08 00:35:59;;;;;;;13.55;6.25;;;-2.60;70.70;;;;;;4171652;28;20032;-73
2022/03/08 00:38:00;;;;;;;17.38;7.07;;;-2.60;70.80;;;;;;4170621;28;20029;-73
2022/03/08 00:40:01;;;;;;;15.02;6.53;;;-2.70;70.80;;;;;;4176788;28;20449;-73
2022/03/08 00:42:02;;;;;;;14.80;6.55;;;-2.70;70.90;;;;;;4188386;28;20012;-73
2022/03/08 00:44:07;;;;;;;13.20;6.72;;;-2.70;70.90;;;;;;4155315;28;20054;-73
2022/03/08 00:46:07;;;;;;;13.02;6.60;;;-2.70;71.00;;;;;;4173598;28;20091;-73
2022/03/08 00:48:08;;;;;;;14.77;6.80;;;-2.70;70.90;;;;;;4174230;28;20036;-73
2022/03/08 00:50:14;;;;;;;13.93;6.57;;;-2.70;71.00;;;;;;4158646;28;20429;-73
2022/03/08 00:52:15;;;;;;;12.90;5.65;;;-2.80;70.80;;;;;;4172545;28;20618;-73
2022/03/08 00:54:15;;;;;;;17.23;6.45;;;-2.80;70.90;;;;;;4155798;28;20037;-73
2022/03/08 00:56:16;;;;;;;13.10;5.75;;;-2.80;70.90;;;;;;4154261;28;20024;-73
2022/03/08 00:58:16;;;;;;;13.80;6.20;;;-2.80;71.00;;;;;;4172662;28;20029;-73
2022/03/08 01:00:21;;;;;;;12.77;6.22;;;-2.80;71.00;;;;;;4175369;28;20489;-74
2022/03/08 01:02:22;;;;;;;13.48;6.63;;;-2.80;71.00;;;;;;4159497;28;20040;-72
2022/03/08 01:04:23;;;;;;;14.32;6.45;;;-2.90;71.00;;;;;;4172591;28;20055;-73
2022/03/08 01:06:23;;;;;;;13.35;6.40;;;-2.90;71.00;;;;;;4172684;28;20053;-73
2022/03/08 01:08:24;;;;;;;12.95;6.43;;;-2.90;71.80;;;;;;4170025;28;20044;-74
2022/03/08 01:10:24;;;;;;;13.85;6.38;;;-2.90;71.20;;;;;;4172406;28;20025;-73
2022/03/08 01:12:25;;;;;;;14.30;6.07;;;-2.90;71.20;;;;;;4174314;28;20025;-73
2022/03/08 01:14:26;;;;;;;14.60;6.18;;;-2.90;71.20;;;;;;4155996;28;20540;-73
2022/03/08 01:16:26;;;;;;;12.55;5.82;;;-3.00;71.20;;;;;;4171336;28;20072;-74
2022/03/08 01:18:27;;;;;;;12.15;5.93;;;-3.00;71.30;;;;;;4176097;28;20489;-73
2022/03/08 01:20:28;;;;;;;14.48;6.40;;;-3.00;71.30;;;;;;4167501;22;20107;-79
2022/03/08 01:22:29;;;;;;;12.85;6.07;;;-3.00;71.30;;;;;;4084356;29;20090;-79
2022/03/08 01:24:30;;;;;;;12.85;6.07;;;-3.00;71.40;;;;;;4065991;29;20055;-78
2022/03/08 01:26:31;;;;;;;12.43;6.65;;;-3.00;71.40;;;;;;4079460;28;20044;-79
2022/03/08 01:28:32;;;;;;;10.55;6.18;;;-3.00;72.10;;;;;;4083724;29;20186;-79
2022/03/08 01:30:34;;;;;;;12.68;5.78;;;-3.00;71.40;;;;;;4077147;29;20032;-78
2022/03/08 01:32:34;;;;;;;11.25;6.05;;;-3.10;71.50;;;;;;4081123;29;20038;-79
2022/03/08 01:34:35;;;;;;;10.15;5.63;;;-3.10;71.50;;;;;;4107795;28;20102;-78
2022/03/08 01:36:36;;;;;;;15.93;5.88;;;-3.10;71.60;;;;;;4092910;29;20043;-78
2022/03/08 01:38:38;;;;;;;12.55;5.78;;;-3.10;71.60;;;;;;4082826;29;20107;-79
2022/03/08 01:40:41;;;;;;;17.98;6.85;;;-3.10;71.60;;;;;;4113635;28;20109;-79
2022/03/08 01:42:48;;;;;;;12.77;6.32;;;-3.20;71.60;;;;;;4081245;28;20056;-78
2022/03/08 01:44:48;;;;;;;13.88;6.85;;;-3.20;71.60;;;;;;4078881;29;20465;-78
2022/03/08 01:46:51;;;;;;;16.88;6.28;;;-3.20;71.70;;;;;;4095222;28;20031;-79
2022/03/08 01:48:56;;;;;;;11.85;5.72;;;-3.20;71.80;;;;;;4098637;28;20444;-79
2022/03/08 01:50:59;;;;;;;13.85;6.50;;;-3.20;71.80;;;;;;4112021;28;20043;-79
2022/03/08 01:53:01;;;;;;;11.43;5.75;;;-3.20;71.90;;;;;;4098823;28;20041;-79
2022/03/08 01:55:08;;;;;;;11.32;6.28;;;-3.20;71.80;;;;;;4098282;28;20123;-79
2022/03/08 01:57:38;;;;;;;12.80;6.30;;;-3.20;71.80;;;;;;4102582;28;20078;-80
2022/03/08 01:59:39;;;;;;;15.48;7.20;;;-3.20;71.80;;;;;;4108427;28;20035;-80
2022/03/08 02:01:40;;;;;;;12.43;6.00;;;-3.30;71.70;;;;;;4095544;28;20552;-79
2022/03/08 02:03:40;;;;;;;12.85;6.22;;;-3.30;71.90;;;;;;4080857;29;20027;-79
2022/03/08 02:05:41;;;;;;;15.13;6.45;;;-3.30;71.90;;;;;;4098914;28;20605;-78
2022/03/08 02:07:42;;;;;;;11.32;5.95;;;-3.30;71.90;;;;;;4079807;29;20086;-78
2022/03/08 02:09:43;;;;;;;12.70;6.10;;;-3.30;72.00;;;;;;4067220;29;20034;-78
2022/03/08 02:11:44;;;;;;;12.02;5.93;;;-3.30;72.00;;;;;;4063779;29;20032;-78
2022/03/08 02:13:45;;;;;;;14.55;5.90;;;-3.40;72.00;;;;;;4086126;29;20023;-78
2022/03/08 02:15:49;;;;;;;12.52;5.63;;;-3.40;72.10;;;;;;4079560;29;20026;-78
2022/03/08 02:17:49;;;;;;;18.02;6.10;;;-3.40;72.20;;;;;;4094723;29;20027;-78
2022/03/08 02:19:56;;;;;;;15.45;5.70;;;-3.40;73.00;;;;;;4096533;28;20397;-78
2022/03/08 02:21:57;;;;;;;11.52;5.65;;;-3.40;72.30;;;;;;4111079;28;21029;-78
2022/03/08 02:23:58;;;;;;;12.00;6.03;;;-3.40;72.30;;;;;;4082991;29;20039;-78
2022/03/08 02:26:01;;;;;;;17.27;6.38;;;-3.40;72.40;;;;;;4110378;28;20274;-78
2022/03/08 02:28:06;;;;;;;20.13;6.32;;;-3.40;72.50;;;;;;4076751;29;20354;-78
2022/03/08 02:30:12;;;;;;;13.38;6.03;;;-3.40;72.50;;;;;;4111468;28;20046;-78
2022/03/08 02:32:13;;;;;;;14.57;5.57;;;-3.40;72.60;;;;;;4114796;28;20031;-78
2022/03/08 02:34:14;;;;;;;13.23;5.93;;;-3.50;72.60;;;;;;4109537;28;20042;-78
2022/03/08 02:36:16;;;;;;;15.32;5.88;;;-3.50;72.60;;;;;;4064748;29;20141;-78
2022/03/08 02:38:17;;;;;;;10.60;5.18;;;-3.50;72.60;;;;;;4110467;28;20046;-78
2022/03/08 02:40:19;;;;;;;12.73;5.85;;;-3.50;72.60;;;;;;4081829;29;20481;-78
2022/03/08 02:42:22;;;;;;;12.93;5.78;;;-3.50;72.60;;;;;;4117766;28;20459;-78
2022/03/08 02:44:24;;;;;;;15.40;6.57;;;-3.50;72.70;;;;;;4062165;29;20081;-78
2022/03/08 02:46:27;;;;;;;15.70;6.38;;;-3.50;72.70;;;;;;4123107;28;20496;-78
2022/03/08 02:48:30;;;;;;;9.88;5.57;;;-3.50;72.60;;;;;;4095758;28;20043;-78
2022/03/08 02:50:32;;;;;;;10.00;5.00;;;-3.50;72.60;;;;;;4079675;29;20062;-78
2022/03/08 02:52:34;;;;;;;11.07;5.87;;;-3.50;72.60;;;;;;4094712;28;20085;-78
2022/03/08 02:54:36;;;;;;;16.42;5.82;;;-3.50;72.60;;;;;;4125192;28;20309;-78
2022/03/08 02:56:42;;;;;;;12.05;5.45;;;-3.50;72.70;;;;;;4081043;28;20039;-78
2022/03/08 02:58:45;;;;;;;11.20;6.32;;;-3.50;72.60;;;;;;4097727;28;20436;-78
2022/03/08 03:00:46;;;;;;;;;;;-3.50;72.70;;;;;;4097504;28;20118;-78
2022/03/08 03:02:48;;;;;;;15.80;5.93;;;-3.50;72.80;;;;;;4114577;28;20342;-78
2022/03/08 03:04:49;;;;;;;37.33;13.60;;;-3.50;72.80;;;;;;4110801;28;20577;-78
2022/03/08 03:06:50;;;;;;;133.75;38.95;;;-3.50;72.70;;;;;;4092385;28;20122;-78
2022/03/08 03:08:52;;;;;;;110.95;33.58;;;-3.60;72.70;;;;;;4077117;29;20082;-78
2022/03/08 03:10:54;;;;;;;57.97;19.42;;;-3.60;72.70;;;;;;4097680;28;20476;-78
2022/03/08 03:12:57;;;;;;;56.05;21.23;;;-3.60;72.60;;;;;;4112067;28;20554;-78
2022/03/08 03:15:02;;;;;;;59.40;22.38;;;-3.60;72.70;;;;;;4093350;28;20062;-78
2022/03/08 03:17:09;;;;;;;41.45;15.30;;;-3.60;72.70;;;;;;4109599;28;20106;-77
2022/03/08 03:19:10;;;;;;;32.00;12.23;;;-3.60;72.70;;;;;;4112313;28;20062;-78
2022/03/08 03:21:11;;;;;;;32.50;10.98;;;-3.60;72.80;;;;;;4096467;28;20505;-78
2022/03/08 03:23:14;;;;;;;22.05;8.48;;;-3.60;72.80;;;;;;4061119;29;20081;-78
2022/03/08 03:25:15;;;;;;;27.20;10.35;;;-3.60;72.80;;;;;;4096012;28;20027;-78
2022/03/08 03:27:18;;;;;;;23.40;9.90;;;-3.60;72.90;;;;;;4102639;28;20035;-78
2022/03/08 03:29:18;;;;;;;19.50;8.82;;;-3.60;72.90;;;;;;4094846;28;20515;-78
2022/03/08 03:31:21;;;;;;;17.80;7.55;;;-3.70;72.90;;;;;;4086949;28;20015;-78
2022/03/08 03:33:22;;;;;;;20.58;8.30;;;-3.70;72.90;;;;;;4109509;28;20477;-78
2022/03/08 03:35:23;;;;;;;28.77;8.20;;;-3.70;72.90;;;;;;4109166;28;20109;-78
2022/03/08 03:37:26;;;;;;;16.88;7.45;;;-3.70;72.90;;;;;;4094370;28;20765;-78
2022/03/08 03:39:27;;;;;;;13.13;6.43;;;-3.70;73.00;;;;;;4076113;29;20031;-78
2022/03/08 03:41:28;;;;;;;19.40;6.78;;;-3.70;73.10;;;;;;4095685;28;20086;-78
2022/03/08 03:43:30;;;;;;;16.13;6.72;;;-3.70;73.10;;;;;;4091546;28;20468;-78
2022/03/08 03:45:30;;;;;;;17.00;6.55;;;-3.70;73.20;;;;;;4094717;28;20122;-78
2022/03/08 03:47:32;;;;;;;17.38;7.85;;;-3.70;73.20;;;;;;4077657;28;20036;-78
2022/03/08 03:49:33;;;;;;;12.15;6.20;;;-3.70;73.30;;;;;;4106812;28;20054;-77
2022/03/08 03:51:34;;;;;;;11.45;5.85;;;-3.70;73.40;;;;;;4077411;29;20035;-78
2022/03/08 03:53:35;;;;;;;14.63;6.38;;;-3.70;73.40;;;;;;4079208;28;20039;-77
2022/03/08 03:55:35;;;;;;;14.45;5.47;;;-3.70;73.40;;;;;;4099893;28;20054;-77
2022/03/08 03:57:36;;;;;;;13.70;6.35;;;-3.70;74.10;;;;;;4109050;28;20050;-78
2022/03/08 03:59:37;;;;;;;16.38;6.20;;;-3.70;73.50;;;;;;4112997;28;20058;-78
2022/03/08 04:01:37;;;;;;;11.82;5.68;;;-3.70;73.50;;;;;;4111842;28;20038;-78
2022/03/08 04:03:38;;;;;;;12.07;6.50;;;-3.70;73.50;;;;;;4127659;28;20037;-78
2022/03/08 04:05:39;;;;;;;18.50;6.80;;;-3.70;73.50;;;;;;4093065;28;20038;-78
2022/03/08 04:07:43;;;;;;;12.57;6.18;;;-3.70;73.60;;;;;;4088515;29;20377;-79
2022/03/08 04:09:45;;;;;;;14.65;6.20;;;-3.70;73.50;;;;;;4079736;29;20493;-79
2022/03/08 04:11:46;;;;;;;15.85;6.80;;;-3.70;74.30;;;;;;4114330;28;21158;-79
2022/03/08 04:13:50;;;;;;;16.80;6.50;;;-3.70;73.60;;;;;;4093412;28;20114;-78
2022/03/08 04:16:36;;;;;;;17.70;6.20;;;-3.70;73.60;;;;;;4111251;28;20448;-78
2022/03/08 04:18:36;;;;;;;16.23;6.68;;;-3.70;73.60;;;;;;4094906;28;20078;-79
2022/03/08 04:20:37;;;;;;;14.07;6.32;;;-3.70;73.60;;;;;;4079985;29;20035;-78
2022/03/08 04:22:37;;;;;;;15.32;6.75;;;-3.70;73.70;;;;;;4082152;29;20031;-78
2022/03/08 04:24:42;;;;;;;17.27;6.72;;;-3.70;73.60;;;;;;4109583;28;20498;-79
2022/03/08 04:26:45;;;;;;;11.90;6.00;;;-3.70;73.70;;;;;;4089791;29;20102;-78
2022/03/08 04:28:46;;;;;;;16.30;6.28;;;-3.70;73.70;;;;;;4095589;28;20497;-78
2022/03/08 04:30:47;;;;;;;16.35;6.45;;;-3.70;73.60;;;;;;4106062;28;20035;-78
2022/03/08 04:32:50;;;;;;;13.48;5.85;;;-3.70;73.60;;;;;;4096962;28;20062;-78
2022/03/08 04:34:53;;;;;;;13.68;6.63;;;-3.70;73.60;;;;;;4109479;28;20053;-78
2022/03/08 04:36:54;;;;;;;10.00;5.55;;;-3.70;73.60;;;;;;4108275;28;20035;-77
2022/03/08 04:38:54;;;;;;;13.75;6.70;;;-3.70;73.60;;;;;;4078768;29;20031;-78
2022/03/08 04:40:55;;;;;;;12.45;6.30;;;-3.70;73.60;;;;;;4062970;29;20039;-77
2022/03/08 04:42:56;;;;;;;19.58;6.70;;;-3.80;73.60;;;;;;4062937;29;20082;-78
2022/03/08 04:44:57;;;;;;;12.68;5.97;;;-3.80;73.60;;;;;;4109384;28;20911;-78
2022/03/08 04:46:58;;;;;;;14.60;7.05;;;-3.80;73.50;;;;;;4078635;28;20036;-78
2022/03/08 04:49:01;;;;;;;10.63;6.03;;;-3.80;73.60;;;;;;4109521;28;20038;-78
2022/03/08 04:51:02;;;;;;;16.17;6.35;;;-3.80;73.60;;;;;;4077240;28;20428;-77
2022/03/08 04:53:03;;;;;;;15.52;6.25;;;-3.80;73.60;;;;;;4111983;28;20465;-78
2022/03/08 04:55:06;;;;;;;21.25;6.53;;;-3.80;73.60;;;;;;4062754;29;20029;-78
2022/03/08 04:57:07;;;;;;;13.45;6.88;;;-3.80;73.50;;;;;;4074504;29;20040;-78
2022/03/08 04:59:09;;;;;;;16.45;6.85;;;-3.80;73.60;;;;;;4074624;29;20075;-78
2022/03/08 05:01:12;;;;;;;13.02;6.32;;;-3.90;73.50;;;;;;4093764;28;20118;-77
2022/03/08 05:03:13;;;;;;;11.88;6.53;;;-3.90;73.50;;;;;;4061695;29;20130;-77
2022/03/08 05:05:14;;;;;;;18.02;7.07;;;-3.90;73.40;;;;;;4079149;29;20501;-78
2022/03/08 05:07:15;;;;;;;14.65;6.30;;;-3.90;73.50;;;;;;4084480;28;20035;-78
2022/03/08 05:09:17;;;;;;;18.30;6.47;;;-3.90;73.50;;;;;;4078882;29;20302;-78
2022/03/08 05:11:18;;;;;;;14.90;6.57;;;-3.90;73.50;;;;;;4107962;28;20027;-78
2022/03/08 05:13:19;;;;;;;12.55;6.53;;;-3.90;73.60;;;;;;4095302;28;20102;-77
2022/03/08 05:15:19;;;;;;;15.10;6.68;;;-3.90;73.60;;;;;;4078483;29;20148;-77
2022/03/08 05:17:20;;;;;;;11.93;5.88;;;-4.00;73.60;;;;;;4091990;28;20512;-77
2022/03/08 05:19:21;;;;;;;17.30;6.07;;;-3.90;73.70;;;;;;4077918;29;20034;-77
2022/03/08 05:21:22;;;;;;;10.30;5.80;;;-4.00;73.70;;;;;;4077252;29;20020;-77
2022/03/08 05:23:22;;;;;;;12.98;6.47;;;-4.00;73.80;;;;;;4093856;28;20035;-77
2022/03/08 05:25:23;;;;;;;14.45;5.93;;;-3.90;73.90;;;;;;4095195;28;20062;-77
2022/03/08 05:27:23;;;;;;;11.35;5.80;;;-4.00;73.90;;;;;;4127297;28;20034;-76
2022/03/08 05:29:24;;;;;;;11.18;5.55;;;-3.90;74.00;;;;;;4061342;29;20486;-77
2022/03/08 05:31:25;;;;;;;19.23;6.93;;;-4.00;74.00;;;;;;4091822;28;20031;-77
2022/03/08 05:33:26;;;;;;;18.27;6.35;;;-4.00;74.10;;;;;;4078368;29;20035;-77
2022/03/08 05:35:26;;;;;;;13.48;6.40;;;-3.90;74.10;;;;;;4110360;28;20027;-77
2022/03/08 05:37:27;;;;;;;13.85;6.00;;;-3.90;74.10;;;;;;4079664;29;20087;-77
2022/03/08 05:39:28;;;;;;;19.30;6.78;;;-3.90;74.20;;;;;;4087912;29;20047;-77
2022/03/08 05:41:28;;;;;;;12.82;6.38;;;-3.90;74.20;;;;;;4095556;28;20031;-77
2022/03/08 05:43:29;;;;;;;17.13;6.20;;;-3.90;74.20;;;;;;4077621;29;20031;-77
2022/03/08 05:45:30;;;;;;;12.25;5.88;;;-3.90;74.30;;;;;;4089590;28;20480;-77
2022/03/08 05:47:31;;;;;;;14.50;6.55;;;-3.90;74.30;;;;;;4102048;28;20035;-77
2022/03/08 05:49:31;;;;;;;14.77;6.72;;;-3.90;74.40;;;;;;4091586;28;20039;-77
2022/03/08 05:51:32;;;;;;;17.63;6.45;;;-3.90;74.30;;;;;;4091215;28;20031;-77
2022/03/08 05:53:32;;;;;;;16.08;6.18;;;-3.90;74.30;;;;;;4090639;28;20037;-77
2022/03/08 05:55:33;;;;;;;10.80;5.03;;;-3.90;74.30;;;;;;4094306;28;20086;-76
2022/03/08 05:57:46;;;;;;;19.40;6.53;;;-3.90;74.20;;;;;;4110206;28;20122;-77
2022/03/08 05:59:49;;;;;;;277.10;136.32;;;-3.90;74.20;;;;;;4075795;29;20035;-77
2022/03/08 06:01:55;;;;;;;96.90;49.20;;;-3.90;74.30;;;;;;4107919;28;20031;-78
2022/03/08 06:03:56;;;;;;;44.70;25.42;;;-3.90;74.40;;;;;;4111676;28;20030;-79
2022/03/08 06:05:56;;;;;;;24.85;11.27;;;-3.90;74.50;;;;;;4129828;28;20968;-79
2022/03/08 06:07:57;;;;;;;21.20;9.43;;;-3.90;74.50;;;;;;4110965;28;20062;-79
2022/03/08 06:09:59;;;;;;;22.63;8.68;;;-3.90;74.50;;;;;;4112056;28;20038;-78
2022/03/08 06:12:00;;;;;;;15.40;7.65;;;-3.90;74.50;;;;;;4113895;28;20473;-79
2022/03/08 06:14:01;;;;;;;23.65;7.55;;;-3.90;74.50;;;;;;4065760;29;20347;-78
2022/03/08 06:16:03;;;;;;;17.98;7.22;;;-3.90;74.60;;;;;;4110450;28;20042;-78
2022/03/08 06:18:04;;;;;;;20.08;7.05;;;-3.90;74.60;;;;;;4095522;28;20046;-78
2022/03/08 06:20:07;;;;;;;18.52;7.55;;;-3.80;74.70;;;;;;4081018;29;20043;-78
2022/03/08 06:22:07;;;;;;;15.73;6.95;;;-3.80;74.80;;;;;;4114187;28;20031;-78
2022/03/08 06:24:08;;;;;;;18.65;7.50;;;-3.80;74.80;;;;;;4097925;28;20063;-78
2022/03/08 06:26:09;;;;;;;15.82;6.30;;;-3.80;74.90;;;;;;4127917;28;20105;-78
2022/03/08 06:28:09;;;;;;;20.65;6.93;;;-3.80;75.00;;;;;;4096339;28;20127;-78
2022/03/08 06:30:13;;;;;;;14.02;6.90;;;-3.70;75.80;;;;;;4094918;28;20034;-78
2022/03/08 06:32:14;;;;;;;18.05;7.18;;;-3.70;75.20;;;;;;4130277;28;20030;-78
2022/03/08 06:34:14;;;;;;;18.35;7.50;;;-3.70;75.30;;;;;;4096679;28;20498;-78
2022/03/08 06:36:15;;;;;;;16.35;7.38;;;-3.60;75.50;;;;;;4091968;28;20019;-78
2022/03/08 06:38:15;;;;;;;17.75;7.32;;;-3.60;75.60;;;;;;4124857;28;20034;-78
2022/03/08 06:40:16;;;;;;;18.50;7.30;;;-3.50;75.80;;;;;;4115117;28;20033;-78
2022/03/08 06:42:17;;;;;;;20.20;7.00;;;-3.50;75.90;;;;;;4082690;29;20134;-78
2022/03/08 06:44:17;;;;;;;15.23;7.20;;;-3.40;76.10;;;;;;4098861;28;20042;-78
2022/03/08 06:46:18;;;;;;;15.25;7.07;;;-3.40;76.20;;;;;;4097507;28;20027;-79
2022/03/08 06:48:18;;;;;;;16.42;7.20;;;-3.30;76.40;;;;;;4097967;28;20456;-78
2022/03/08 06:50:19;;;;;;;18.65;7.60;;;-3.30;76.50;;;;;;4100441;28;20030;-78
2022/03/08 06:52:20;;;;;;;16.90;7.28;;;-3.20;76.60;;;;;;4082244;29;20028;-78
2022/03/08 06:54:21;;;;;;;13.50;6.93;;;-3.10;76.80;;;;;;4127843;28;20034;-78
2022/03/08 06:56:22;;;;;;;14.20;7.70;;;-3.10;76.90;;;;;;4110696;28;20081;-78
2022/03/08 06:58:23;;;;;;;17.17;7.45;;;-3.00;77.10;;;;;;4112387;28;20026;-78
2022/03/08 07:00:23;;;;;;;17.77;7.53;;;-2.90;77.20;;;;;;4111397;28;20034;-78
2022/03/08 07:02:25;;;;;;;13.90;6.93;;;-2.90;78.00;;;;;;4115795;28;20081;-78
2022/03/08 07:04:26;;;;;;;19.33;8.05;;;-2.80;77.40;;;;;;4095989;28;20019;-78
2022/03/08 07:06:26;;;;;;;25.25;8.02;;;-2.70;77.60;;;;;;4112749;28;20376;-78
2022/03/08 07:08:27;;;;;;;22.38;7.75;;;-2.70;77.60;;;;;;4083158;29;20127;-78
2022/03/08 07:10:28;;;;;;;22.75;8.40;;;-2.60;77.70;;;;;;4125987;28;20026;-78
2022/03/08 07:12:28;;;;;;;19.67;8.43;;;-2.50;77.90;;;;;;4083318;29;20398;-78
2022/03/08 07:14:29;;;;;;;22.20;9.30;;;-2.40;78.00;;;;;;4127150;28;20027;-78
2022/03/08 07:16:29;;;;;;;23.17;8.63;;;-2.40;78.20;;;;;;4065924;29;20020;-78
2022/03/08 07:18:30;;;;;;;26.48;9.55;;;-2.30;78.20;;;;;;4111729;28;20022;-78
2022/03/08 07:20:31;;;;;;;20.85;9.40;;;-2.20;78.40;;;;;;4126600;28;20372;-78
2022/03/08 07:22:32;;;;;;;25.73;8.95;;;-2.10;78.50;;;;;;4097314;28;20019;-77
2022/03/08 07:24:34;;;;;;;16.83;8.50;;;-2.00;78.60;;;;;;4083331;28;20042;-78
2022/03/08 07:26:35;;;;;;;24.42;7.80;;;-1.90;78.80;;;;;;4095640;28;20071;-78
2022/03/08 07:28:36;;;;;;;15.30;7.18;;;-1.80;78.80;;;;;;4108246;28;20047;-78
2022/03/08 07:30:36;;;;;;;26.45;8.57;;;-1.70;79.00;;;;;;4094923;28;20090;-78
2022/03/08 07:32:37;;;;;;;14.48;7.03;;;-1.60;79.10;;;;;;4080492;29;20043;-78
2022/03/08 07:34:38;;;;;;;16.42;7.15;;;-1.50;79.30;;;;;;4110978;28;20023;-78
2022/03/08 07:36:38;;;;;;;16.33;7.47;;;-1.50;79.50;;;;;;4110859;28;20416;-78
2022/03/08 07:38:39;;;;;;;13.50;6.97;;;-1.40;79.60;;;;;;4112643;28;20023;-78
2022/03/08 07:40:39;;;;;;;12.95;6.82;;;-1.30;79.80;;;;;;4111217;28;20079;-78
2022/03/08 07:42:40;;;;;;;14.27;6.95;;;-1.20;80.00;;;;;;4094895;28;20394;-78
2022/03/08 07:44:41;;;;;;;14.02;7.47;;;-1.10;80.00;;;;;;4093789;28;20042;-78
2022/03/08 07:46:41;;;;;;;14.73;7.57;;;-1.00;80.10;;;;;;4126871;28;20030;-78
2022/03/08 07:48:42;;;;;;;14.48;7.20;;;-0.90;80.40;;;;;;4080309;29;20043;-78
2022/03/08 07:50:42;;;;;;;18.38;8.32;;;-0.80;80.50;;;;;;4126194;28;20050;-78
2022/03/08 07:52:43;;;;;;;17.33;7.63;;;-0.70;80.60;;;;;;4112223;28;20031;-78
2022/03/08 07:54:45;;;;;;;16.05;7.72;;;-0.60;80.70;;;;;;4079124;29;20405;-79
2022/03/08 07:56:46;;;;;;;18.15;8.23;;;-0.50;80.80;;;;;;4094758;28;20543;-78
2022/03/08 07:58:47;;;;;;;14.68;7.60;;;-0.50;80.60;;;;;;4084874;29;20028;-79
2022/03/08 08:00:47;;;;;;;14.88;7.05;;;-0.40;80.70;;;;;;4096841;28;20019;-78
2022/03/08 08:02:48;;;;;;;16.67;6.72;;;-0.30;80.80;;;;;;4075962;29;20099;-78
2022/03/08 08:04:49;;;;;;;15.38;7.07;;;-0.20;80.70;;;;;;4109287;28;20104;-78
2022/03/08 08:06:50;;;;;;;11.43;6.53;;;-0.10;80.70;;;;;;4110818;28;20027;-78
2022/03/08 08:08:51;;;;;;;12.55;6.57;;;0.00;80.60;;;;;;4108246;28;20543;-78
2022/03/08 08:10:51;;;;;;;15.90;6.22;;;0.10;80.60;;;;;;4080879;29;20031;-78
2022/03/08 08:12:52;;;;;;;15.63;6.82;;;0.20;80.50;;;;;;4078524;29;20020;-78
2022/03/08 08:14:53;;;;;;;11.95;6.10;;;0.30;80.40;;;;;;4098114;28;20064;-78
2022/03/08 08:16:54;;;;;;;9.95;5.70;;;0.40;80.50;;;;;;4109925;28;20123;-78
2022/03/08 08:18:55;;;;;;;13.57;6.70;;;0.50;80.60;;;;;;4096867;28;20055;-78
2022/03/08 08:20:56;;;;;;;11.75;5.03;;;0.60;80.50;;;;;;4094805;28;20045;-78
2022/03/08 08:22:56;;;;;;;11.60;5.70;;;0.70;80.40;;;;;;4100818;28;20081;-79
2022/03/08 08:24:58;;;;;;;15.85;5.95;;;0.80;80.40;;;;;;4080317;29;20402;-79
2022/03/08 08:26:59;;;;;;;10.32;5.25;;;1.00;80.40;;;;;;4121902;28;20538;-79
2022/03/08 08:28:59;;;;;;;10.80;5.50;;;1.00;80.20;;;;;;4125263;28;20041;-79
2022/03/08 08:31:00;;;;;;;13.18;5.40;;;1.10;80.10;;;;;;4111966;28;20401;-78
2022/03/08 08:33:01;;;;;;;10.52;5.05;;;1.20;79.90;;;;;;4085375;29;20029;-79
2022/03/08 08:35:01;;;;;;;11.52;5.32;;;1.30;79.70;;;;;;4093970;28;20067;-79
2022/03/08 08:37:04;;;;;;;12.52;5.18;;;1.40;79.40;;;;;;4102978;28;20027;-78
2022/03/08 08:39:07;;;;;;;9.70;4.70;;;1.40;79.20;;;;;;4082849;29;20522;-79
2022/03/08 08:41:07;;;;;;;;;;;1.50;78.80;;;;;;4109422;28;20023;-79
2022/03/08 08:43:08;;;;;;;7.70;4.25;;;1.60;78.60;;;;;;4080790;29;20225;-79
2022/03/08 08:45:10;;;;;;;13.38;4.40;;;1.70;78.50;;;;;;4103524;28;20050;-79
2022/03/08 08:47:12;;;;;;;12.80;4.78;;;1.80;78.00;;;;;;4111413;28;20064;-79
2022/03/08 08:49:16;;;;;;;7.25;3.90;;;1.80;77.50;;;;;;4106288;28;20476;-79
2022/03/08 08:51:17;;;;;;;8.73;4.35;;;1.90;77.00;;;;;;4109554;28;20019;-79
2022/03/08 08:53:20;;;;;;;7.60;4.13;;;2.00;76.60;;;;;;4111115;28;20035;-79
2022/03/08 08:55:20;;;;;;;6.57;3.83;;;2.10;76.40;;;;;;4064833;29;20062;-79
2022/03/08 08:57:21;;;;;;;6.72;3.70;;;2.20;75.90;;;;;;4095428;28;20024;-78
2022/03/08 08:59:22;;;;;;;10.18;4.07;;;2.20;75.40;;;;;;4079630;29;20038;-79
2022/03/08 09:01:23;;;;;;;8.25;3.38;;;2.40;75.00;;;;;;4079352;29;20265;-79
2022/03/08 09:03:25;;;;;;;7.20;3.42;;;2.40;74.00;;;;;;4112161;28;20519;-79
2022/03/08 09:05:27;;;;;;;8.38;3.17;;;2.50;73.40;;;;;;4084724;28;20049;-79
2022/03/08 09:07:28;;;;;;;7.65;3.40;;;2.60;73.00;;;;;;4114987;28;20102;-79
2022/03/08 09:09:30;;;;;;;5.80;3.42;;;2.70;72.50;;;;;;4113727;28;20039;-79
2022/03/08 09:11:38;;;;;;;9.65;3.13;;;2.80;71.80;;;;;;4110472;28;20027;-79
2022/03/08 09:13:40;;;;;;;6.47;3.15;;;2.80;71.50;;;;;;4127808;28;20026;-79
2022/03/08 09:15:43;;;;;;;8.60;3.00;;;2.90;71.00;;;;;;4085991;29;20568;-79
2022/03/08 09:17:47;;;;;;;5.68;3.25;;;3.00;70.80;;;;;;4088647;28;20028;-79
2022/03/08 09:19:50;;;;;;;8.23;2.58;;;3.10;70.50;;;;;;4094279;28;20468;-79
2022/03/08 09:21:52;;;;;;;5.57;3.15;;;3.20;70.50;;;;;;4126830;28;20531;-79
2022/03/08 09:23:55;;;;;;;5.07;2.55;;;3.30;70.00;;;;;;4110987;28;20449;-79
2022/03/08 09:25:57;;;;;;;15.00;3.28;;;3.40;68.30;;;;;;4078834;28;20640;-79
2022/03/08 09:28:05;;;;;;;5.70;2.65;;;3.50;68.50;;;;;;4108741;28;20035;-79
2022/03/08 09:30:10;;;;;;;5.43;2.30;;;3.60;68.00;;;;;;4110211;28;20114;-79
2022/03/08 09:32:33;;;;;;;7.57;2.67;;;3.70;67.30;;;;;;4113968;28;20029;-79
2022/03/08 09:34:38;;;;;;;7.25;2.50;;;3.80;66.30;;;;;;4101564;28;20452;-79
2022/03/08 09:36:39;;;;;;;4.80;2.70;;;3.80;65.70;;;;;;4094871;28;20693;-79
2022/03/08 09:38:39;;;;;;;4.65;2.70;;;3.90;65.90;;;;;;4081967;29;20075;-79
2022/03/08 09:40:40;;;;;;;5.03;2.50;;;4.00;65.40;;;;;;4113189;28;20193;-79
2022/03/08 09:42:41;;;;;;;6.95;2.13;;;4.10;64.80;;;;;;4067086;29;20107;-79
2022/03/08 09:44:43;;;;;;;8.10;2.55;;;4.10;64.50;;;;;;4096337;28;20039;-79
2022/03/08 09:47:19;;;;;;;4.65;2.10;;;4.20;64.50;;;;;;4109277;28;20065;-79
2022/03/08 09:49:21;;;;;;;5.05;2.17;;;4.30;63.90;;;;;;4084860;29;20043;-79
2022/03/08 09:51:24;;;;;;;6.30;2.60;;;4.40;63.90;;;;;;4099854;28;20052;-79
2022/03/08 09:53:47;;;;;;;5.00;2.50;;;4.50;62.60;;;;;;4094167;28;20039;-79
2022/03/08 09:55:49;;;;;;;4.10;2.13;;;4.50;62.60;;;;;;4128647;28;20027;-79
2022/03/08 09:57:55;;;;;;;5.63;2.38;;;4.60;62.00;;;;;;4108269;28;20142;-80
2022/03/08 09:59:58;;;;;;;13.13;1.95;;;4.70;62.10;;;;;;4093911;29;20580;-79
2022/03/08 10:02:01;;;;;;;3.78;1.98;;;4.80;61.90;;;;;;4084744;28;20486;-80
2022/03/08 10:04:26;;;;;;;4.78;2.10;;;4.80;61.70;;;;;;4088996;28;20458;-80
2022/03/08 10:06:42;;;;;;;8.90;2.47;;;4.90;61.40;;;;;;4079783;29;20453;-79
2022/03/08 10:08:43;;;;;;;5.15;1.98;;;5.00;60.50;;;;;;4112857;28;20532;-80
2022/03/08 10:10:50;;;;;;;5.47;2.03;;;5.10;60.60;;;;;;4082620;29;20051;-80
2022/03/08 10:12:56;;;;;;;9.52;2.70;;;5.10;60.30;;;;;;4087794;29;20478;-80
2022/03/08 10:15:01;;;;;;;6.57;1.80;;;5.20;59.90;;;;;;4100209;28;20433;-80
2022/03/08 10:17:02;;;;;;;3.25;1.83;;;5.30;60.00;;;;;;4099141;28;20038;-80
2022/03/08 10:19:08;;;;;;;7.60;1.83;;;5.30;59.10;;;;;;4128987;28;20113;-80
2022/03/08 10:21:25;;;;;;;5.47;2.00;;;5.40;59.10;;;;;;4100802;28;20511;-80
2022/03/08 10:23:29;;;;;;;5.43;2.08;;;5.50;58.30;;;;;;4113611;28;20022;-79
2022/03/08 10:25:31;;;;;;;5.15;1.95;;;5.60;58.70;;;;;;4085112;29;20425;-80
2022/03/08 10:28:02;;;;;;;6.80;2.15;;;5.60;58.10;;;;;;4113083;28;20039;-80
2022/03/08 10:30:13;;;;;;;4.82;1.83;;;5.70;57.60;;;;;;4128807;28;20065;-80
2022/03/08 10:32:20;;;;;;;5.03;2.40;;;5.70;56.60;;;;;;4089177;29;20535;-80